createdAt,value
2019-05-29T00:00:25.407Z,1001.01
2019-05-29T00:01:24.813Z,1001.06
2019-05-29T00:02:24.981Z,1001.08
2019-05-29T00:03:25.171Z,1001.14
2019-05-29T00:04:25.325Z,1001.11
2019-05-29T00:05:26.393Z,1001.09
2019-05-29T00:06:25.660Z,1001.12
2019-05-29T00:07:25.923Z,1001.10
2019-05-29T00:08:25.940Z,1001.15
2019-05-29T00:09:26.131Z,1001.14
2019-05-29T00:10:26.286Z,1001.14
2019-05-29T00:11:27.426Z,1001.10
2019-05-29T00:12:26.691Z,1001.12
2019-05-29T00:13:26.865Z,1001.22
2019-05-29T00:14:27.935Z,1001.22
2019-05-29T00:15:27.194Z,1001.23
2019-05-29T00:16:27.364Z,1001.19
2019-05-29T00:17:28.580Z,1001.21
2019-05-29T00:18:27.734Z,1001.24
2019-05-29T00:19:27.932Z,1001.27
2019-05-29T00:20:28.105Z,1001.21
2019-05-29T00:21:28.917Z,1001.31
2019-05-29T00:22:28.476Z,1001.24
2019-05-29T00:23:28.638Z,1001.30
2019-05-29T00:24:28.838Z,1001.34
2019-05-29T00:25:29.038Z,1001.34
2019-05-29T00:26:29.222Z,1001.36
2019-05-29T00:27:29.908Z,1001.31
2019-05-29T00:29:03.826Z,1001.30
2019-05-29T00:29:30.470Z,1001.30
2019-05-29T00:31:03.857Z,1001.31
2019-05-29T00:31:30.998Z,1001.35
2019-05-29T00:32:30.284Z,1001.38
2019-05-29T00:33:30.470Z,1001.33
2019-05-29T00:34:31.473Z,1001.39
2019-05-29T00:35:30.833Z,1001.42
2019-05-29T00:36:30.998Z,1001.50
2019-05-29T00:37:31.127Z,1001.49
2019-05-29T00:38:31.263Z,1001.48
2019-05-29T00:39:31.384Z,1001.54
2019-05-29T00:40:31.508Z,1001.47
2019-05-29T00:41:31.668Z,1001.56
2019-05-29T00:42:31.781Z,1001.53
2019-05-29T00:43:31.920Z,1001.51
2019-05-29T00:44:34.557Z,1001.54
2019-05-29T00:45:33.170Z,1001.57
2019-05-29T00:46:32.387Z,1001.52
2019-05-29T00:47:32.535Z,1001.56
2019-05-29T00:48:32.689Z,1001.55
2019-05-29T00:49:32.837Z,1001.58
2019-05-29T00:50:34.971Z,1001.55
2019-05-29T00:51:33.978Z,1001.51
2019-05-29T00:52:33.339Z,1001.57
2019-05-29T00:53:33.500Z,1001.56
2019-05-29T00:54:34.479Z,1001.56
2019-05-29T00:55:33.847Z,1001.55
2019-05-29T00:56:34.013Z,1001.56
2019-05-29T00:57:34.181Z,1001.54
2019-05-29T00:58:34.487Z,1001.52
2019-05-29T00:59:35.472Z,1001.60
2019-05-29T01:00:34.744Z,1001.61
2019-05-29T01:01:35.469Z,1001.69
2019-05-29T01:03:07.555Z,1001.64
2019-05-29T01:03:36.004Z,1001.67
2019-05-29T01:04:36.503Z,1001.68
2019-05-29T01:05:36.495Z,1001.71
2019-05-29T01:06:36.891Z,1001.76
2019-05-29T01:07:37.024Z,1001.68
2019-05-29T01:08:36.206Z,1001.72
2019-05-29T01:09:36.402Z,1001.69
2019-05-29T01:10:36.571Z,1001.72
2019-05-29T01:11:37.511Z,1001.75
2019-05-29T01:12:36.919Z,1001.77
2019-05-29T01:13:37.079Z,1001.75
2019-05-29T01:14:49.677Z,1001.83
2019-05-29T01:15:39.366Z,1001.79
2019-05-29T01:16:37.598Z,1001.83
2019-05-29T01:17:37.791Z,1001.84
2019-05-29T01:18:37.950Z,1001.89
2019-05-29T01:19:39.037Z,1001.81
2019-05-29T01:20:38.281Z,1001.91
2019-05-29T01:21:38.448Z,1001.89
2019-05-29T01:22:38.618Z,1001.90
2019-05-29T01:23:39.511Z,1001.95
2019-05-29T01:24:39.021Z,1001.97
2019-05-29T01:25:40.004Z,1001.96
2019-05-29T01:26:39.282Z,1001.92
2019-05-29T01:27:39.461Z,1001.92
2019-05-29T01:28:39.604Z,1001.97
2019-05-29T01:29:39.788Z,1001.97
2019-05-29T01:30:39.927Z,1002.02
2019-05-29T01:31:40.160Z,1002.00
2019-05-29T01:32:40.309Z,1002.08
2019-05-29T01:33:40.460Z,1002.05
2019-05-29T01:34:40.631Z,1002.05
2019-05-29T01:35:40.804Z,1002.07
2019-05-29T01:37:16.015Z,1002.08
2019-05-29T01:37:41.085Z,1002.08
2019-05-29T01:38:41.559Z,1002.13
2019-05-29T01:39:42.058Z,1002.11
2019-05-29T01:40:41.589Z,1002.13
2019-05-29T01:41:41.741Z,1002.14
2019-05-29T01:42:41.888Z,1002.19
2019-05-29T01:43:42.555Z,1002.21
2019-05-29T01:44:42.213Z,1002.23
2019-05-29T01:45:42.390Z,1002.24
2019-05-29T01:46:42.562Z,1002.21
2019-05-29T01:47:43.532Z,1002.21
2019-05-29T01:48:43.073Z,1002.22
2019-05-29T01:49:43.147Z,1002.26
2019-05-29T01:50:43.326Z,1002.25
2019-05-29T01:51:44.064Z,1002.25
2019-05-29T01:52:43.751Z,1002.21
2019-05-29T01:53:43.957Z,1002.32
2019-05-29T01:54:44.124Z,1002.26
2019-05-29T01:55:44.296Z,1002.33
2019-05-29T01:56:44.456Z,1002.31
2019-05-29T01:57:44.614Z,1002.32
2019-05-29T01:58:44.809Z,1002.32
2019-05-29T01:59:44.974Z,1002.39
2019-05-29T02:00:45.576Z,1002.40
2019-05-29T02:01:45.359Z,1002.39
2019-05-29T02:02:45.526Z,1002.40
2019-05-29T02:03:45.688Z,1002.41
2019-05-29T02:04:45.850Z,1002.42
2019-05-29T02:05:46.034Z,1002.40
2019-05-29T02:06:46.218Z,1002.49
2019-05-29T02:07:46.376Z,1002.40
2019-05-29T02:08:46.534Z,1002.43
2019-05-29T02:09:46.671Z,1002.49
2019-05-29T02:11:19.269Z,1002.47
2019-05-29T02:11:47.579Z,1002.50
2019-05-29T02:12:47.239Z,1002.54
2019-05-29T02:13:47.407Z,1002.53
2019-05-29T02:14:48.069Z,1002.54
2019-05-29T02:15:47.748Z,1002.53
2019-05-29T02:16:48.088Z,1002.56
2019-05-29T02:17:48.586Z,1002.60
2019-05-29T02:18:48.366Z,1002.60
2019-05-29T02:19:49.074Z,1002.63
2019-05-29T02:20:48.758Z,1002.61
2019-05-29T02:21:49.087Z,1002.63
2019-05-29T02:22:49.150Z,1002.61
2019-05-29T02:23:49.353Z,1002.63
2019-05-29T02:24:50.082Z,1002.61
2019-05-29T02:25:50.575Z,1002.63
2019-05-29T02:26:49.876Z,1002.66
2019-05-29T02:27:50.063Z,1002.70
2019-05-29T02:28:50.299Z,1002.72
2019-05-29T02:29:51.073Z,1002.72
2019-05-29T02:30:50.738Z,1002.71
2019-05-29T02:31:50.954Z,1002.74
2019-05-29T02:32:51.143Z,1002.72
2019-05-29T02:33:51.318Z,1002.74
2019-05-29T02:34:51.488Z,1002.76
2019-05-29T02:35:52.600Z,1002.80
2019-05-29T02:36:51.882Z,1002.79
2019-05-29T02:37:52.098Z,1002.83
2019-05-29T02:38:52.291Z,1002.80
2019-05-29T02:39:52.501Z,1002.85
2019-05-29T02:40:53.577Z,1002.84
2019-05-29T02:41:53.575Z,1002.84
2019-05-29T02:42:53.124Z,1002.86
2019-05-29T02:43:54.076Z,1002.93
2019-05-29T02:44:53.456Z,1002.88
2019-05-29T02:45:55.140Z,1002.91
2019-05-29T02:46:54.803Z,1002.95
2019-05-29T02:47:53.955Z,1002.98
2019-05-29T02:48:54.124Z,1002.96
2019-05-29T02:49:54.258Z,1002.99
2019-05-29T02:50:54.407Z,1002.98
2019-05-29T02:51:54.557Z,1002.98
2019-05-29T02:52:54.734Z,1003.04
2019-05-29T02:53:54.904Z,1002.96
2019-05-29T02:54:55.577Z,1002.99
2019-05-29T02:55:56.078Z,1003.01
2019-05-29T02:56:55.350Z,1003.03
2019-05-29T02:57:55.583Z,1003.02
2019-05-29T02:58:55.758Z,1003.01
2019-05-29T02:59:55.951Z,1003.07
2019-05-29T03:00:56.120Z,1003.09
2019-05-29T03:01:56.592Z,1003.10
2019-05-29T03:02:57.092Z,1003.08
2019-05-29T03:03:57.084Z,1003.08
2019-05-29T03:04:56.993Z,1003.13
2019-05-29T03:05:57.156Z,1003.11
2019-05-29T03:06:57.326Z,1003.19
2019-05-29T03:07:58.086Z,1003.17
2019-05-29T03:08:58.081Z,1003.23
2019-05-29T03:09:57.843Z,1003.29
2019-05-29T03:10:58.085Z,1003.25
2019-05-29T03:12:00.357Z,1003.22
2019-05-29T03:12:59.296Z,1003.26
2019-05-29T03:13:58.474Z,1003.29
2019-05-29T03:14:59.585Z,1003.28
2019-05-29T03:16:10.491Z,1003.26
2019-05-29T03:16:59.979Z,1003.30
2019-05-29T03:18:00.077Z,1003.29
2019-05-29T03:19:34.539Z,1003.39
2019-05-29T03:19:59.487Z,1003.36
2019-05-29T03:20:59.647Z,1003.40
2019-05-29T03:22:00.620Z,1003.36
2019-05-29T03:23:00.017Z,1003.39
2019-05-29T03:24:00.643Z,1003.41
2019-05-29T03:25:00.426Z,1003.42
2019-05-29T03:26:00.620Z,1003.47
2019-05-29T03:27:00.759Z,1003.48
2019-05-29T03:28:00.882Z,1003.45
2019-05-29T03:29:01.019Z,1003.41
2019-05-29T03:30:01.174Z,1003.42
2019-05-29T03:31:02.378Z,1003.47
2019-05-29T03:32:02.547Z,1003.51
2019-05-29T03:33:01.669Z,1003.44
2019-05-29T03:34:02.628Z,1003.45
2019-05-29T03:35:02.136Z,1003.51
2019-05-29T03:36:02.245Z,1003.50
2019-05-29T03:37:02.483Z,1003.53
2019-05-29T03:38:03.647Z,1003.61
2019-05-29T03:39:02.879Z,1003.51
2019-05-29T03:40:03.155Z,1003.54
2019-05-29T03:41:03.305Z,1003.57
2019-05-29T03:42:03.456Z,1003.61
2019-05-29T03:43:03.595Z,1003.54
2019-05-29T03:44:04.628Z,1003.57
2019-05-29T03:45:04.131Z,1003.65
2019-05-29T03:46:04.037Z,1003.59
2019-05-29T03:47:05.119Z,1003.62
2019-05-29T03:48:05.127Z,1003.62
2019-05-29T03:49:04.501Z,1003.64
2019-05-29T03:50:04.681Z,1003.67
2019-05-29T03:51:05.143Z,1003.66
2019-05-29T03:52:05.053Z,1003.67
2019-05-29T03:53:38.655Z,1003.64
2019-05-29T03:54:05.407Z,1003.63
2019-05-29T03:55:05.556Z,1003.62
2019-05-29T03:56:05.757Z,1003.66
2019-05-29T03:57:05.912Z,1003.67
2019-05-29T03:58:06.085Z,1003.70
2019-05-29T03:59:07.156Z,1003.68
2019-05-29T04:00:06.432Z,1003.70
2019-05-29T04:01:06.772Z,1003.74
2019-05-29T04:02:07.656Z,1003.75
2019-05-29T04:03:06.924Z,1003.73
2019-05-29T04:04:07.659Z,1003.77
2019-05-29T04:05:07.334Z,1003.74
2019-05-29T04:06:07.568Z,1003.74
2019-05-29T04:07:07.625Z,1003.76
2019-05-29T04:08:07.842Z,1003.76
2019-05-29T04:09:08.652Z,1003.81
2019-05-29T04:10:08.202Z,1003.81
2019-05-29T04:11:08.729Z,1003.70
2019-05-29T04:12:08.582Z,1003.78
2019-05-29T04:13:08.789Z,1003.79
2019-05-29T04:14:09.064Z,1003.78
2019-05-29T04:15:09.122Z,1003.78
2019-05-29T04:16:09.282Z,1003.79
2019-05-29T04:17:09.465Z,1003.79
2019-05-29T04:18:09.639Z,1003.79
2019-05-29T04:19:09.774Z,1003.83
2019-05-29T04:20:09.905Z,1003.80
2019-05-29T04:21:10.647Z,1003.82
2019-05-29T04:22:10.298Z,1003.86
2019-05-29T04:23:10.458Z,1003.89
2019-05-29T04:24:10.614Z,1003.91
2019-05-29T04:25:11.224Z,1003.90
2019-05-29T04:26:11.745Z,1003.93
2019-05-29T04:27:43.517Z,1003.88
2019-05-29T04:28:11.275Z,1003.89
2019-05-29T04:29:11.708Z,1003.91
2019-05-29T04:30:11.599Z,1003.97
2019-05-29T04:31:12.698Z,1003.95
2019-05-29T04:32:12.697Z,1003.97
2019-05-29T04:33:12.708Z,1004.00
2019-05-29T04:34:12.321Z,1003.98
2019-05-29T04:35:12.458Z,1004.02
2019-05-29T04:36:12.588Z,1004.03
2019-05-29T04:37:13.687Z,1004.09
2019-05-29T04:38:12.948Z,1004.07
2019-05-29T04:39:14.094Z,1004.07
2019-05-29T04:40:13.331Z,1004.04
2019-05-29T04:41:13.474Z,1004.09
2019-05-29T04:42:13.609Z,1004.04
2019-05-29T04:43:13.776Z,1004.07
2019-05-29T04:44:13.891Z,1004.16
2019-05-29T04:45:14.068Z,1004.11
2019-05-29T04:46:14.243Z,1004.10
2019-05-29T04:47:15.190Z,1004.14
2019-05-29T04:48:15.189Z,1004.07
2019-05-29T04:49:14.766Z,1004.19
2019-05-29T04:50:14.902Z,1004.09
2019-05-29T04:51:15.047Z,1004.11
2019-05-29T04:52:15.208Z,1004.16
2019-05-29T04:53:15.381Z,1004.16
2019-05-29T04:54:15.557Z,1004.17
2019-05-29T04:55:15.761Z,1004.21
2019-05-29T04:56:16.692Z,1004.24
2019-05-29T04:57:16.699Z,1004.24
2019-05-29T04:58:17.198Z,1004.19
2019-05-29T04:59:17.216Z,1004.28
2019-05-29T05:00:16.727Z,1004.24
2019-05-29T05:01:50.169Z,1004.23
2019-05-29T05:02:16.915Z,1004.27
2019-05-29T05:03:17.089Z,1004.32
2019-05-29T05:04:17.233Z,1004.30
2019-05-29T05:05:19.545Z,1004.29
2019-05-29T05:06:18.596Z,1004.34
2019-05-29T05:07:18.733Z,1004.31
2019-05-29T05:08:18.238Z,1004.32
2019-05-29T05:09:18.743Z,1004.42
2019-05-29T05:10:18.385Z,1004.38
2019-05-29T05:11:18.516Z,1004.38
2019-05-29T05:12:19.255Z,1004.41
2019-05-29T05:13:19.741Z,1004.44
2019-05-29T05:14:19.108Z,1004.43
2019-05-29T05:15:19.287Z,1004.44
2019-05-29T05:16:19.490Z,1004.42
2019-05-29T05:17:26.154Z,1004.41
2019-05-29T05:18:21.864Z,1004.47
2019-05-29T05:19:19.977Z,1004.49
2019-05-29T05:20:20.140Z,1004.46
2019-05-29T05:21:20.760Z,1004.51
2019-05-29T05:22:20.526Z,1004.53
2019-05-29T05:23:20.710Z,1004.49
2019-05-29T05:24:21.735Z,1004.46
2019-05-29T05:25:21.044Z,1004.48
2019-05-29T05:26:21.259Z,1004.48
2019-05-29T05:27:21.453Z,1004.48
2019-05-29T05:28:21.658Z,1004.46
2019-05-29T05:29:21.838Z,1004.48
2019-05-29T05:30:22.047Z,1004.55
2019-05-29T05:31:22.290Z,1004.44
2019-05-29T05:32:22.388Z,1004.53
2019-05-29T05:33:23.241Z,1004.45
2019-05-29T05:34:23.764Z,1004.51
2019-05-29T05:35:57.183Z,1004.47
2019-05-29T05:36:23.804Z,1004.47
2019-05-29T05:37:23.292Z,1004.49
2019-05-29T05:38:23.478Z,1004.44
2019-05-29T05:39:24.013Z,1004.49
2019-05-29T05:40:23.818Z,1004.42
2019-05-29T05:41:24.032Z,1004.43
2019-05-29T05:42:24.233Z,1004.45
2019-05-29T05:43:24.741Z,1004.39
2019-05-29T05:44:25.609Z,1004.45
2019-05-29T05:45:24.758Z,1004.45
2019-05-29T05:46:25.276Z,1004.46
2019-05-29T05:47:43.033Z,1004.50
2019-05-29T05:48:26.264Z,1004.43
2019-05-29T05:49:26.267Z,1004.42
2019-05-29T05:50:25.536Z,1004.51
2019-05-29T05:51:25.730Z,1004.50
2019-05-29T05:52:26.773Z,1004.53
2019-05-29T05:53:26.040Z,1004.58
2019-05-29T05:54:26.269Z,1004.58
2019-05-29T05:55:27.272Z,1004.60
2019-05-29T05:56:26.710Z,1004.60
2019-05-29T05:57:26.885Z,1004.58
2019-05-29T05:58:27.051Z,1004.64
2019-05-29T05:59:27.782Z,1004.69
2019-05-29T06:00:27.439Z,1004.59
2019-05-29T06:01:27.689Z,1004.60
2019-05-29T06:02:27.864Z,1004.57
2019-05-29T06:03:27.990Z,1004.61
2019-05-29T06:04:28.181Z,1004.58
2019-05-29T06:05:29.304Z,1004.64
2019-05-29T06:06:28.572Z,1004.58
2019-05-29T06:07:28.745Z,1004.53
2019-05-29T06:08:29.286Z,1004.57
2019-05-29T06:10:03.201Z,1004.56
2019-05-29T06:10:29.800Z,1004.60
2019-05-29T06:11:29.310Z,1004.57
2019-05-29T06:12:30.309Z,1004.59
2019-05-29T06:13:29.834Z,1004.59
2019-05-29T06:14:29.873Z,1004.60
2019-05-29T06:15:30.035Z,1004.62
2019-05-29T06:16:30.190Z,1004.68
2019-05-29T06:17:30.371Z,1004.64
2019-05-29T06:18:30.584Z,1004.65
2019-05-29T06:19:30.806Z,1004.64
2019-05-29T06:20:30.979Z,1004.65
2019-05-29T06:21:31.175Z,1004.70
2019-05-29T06:22:32.805Z,1004.69
2019-05-29T06:23:32.700Z,1004.65
2019-05-29T06:24:33.449Z,1004.69
2019-05-29T06:25:33.625Z,1004.70
2019-05-29T06:26:32.807Z,1004.71
2019-05-29T06:27:33.527Z,1004.77
2019-05-29T06:28:33.299Z,1004.71
2019-05-29T06:29:33.502Z,1004.75
2019-05-29T06:30:34.455Z,1004.76
2019-05-29T06:31:35.141Z,1004.76
2019-05-29T06:32:33.484Z,1004.76
2019-05-29T06:33:35.231Z,1004.79
2019-05-29T06:34:33.551Z,1004.79
2019-05-29T06:35:35.886Z,1004.81
2019-05-29T06:36:35.543Z,1004.75
2019-05-29T06:37:33.891Z,1004.76
2019-05-29T06:38:34.077Z,1004.79
2019-05-29T06:39:35.231Z,1004.83
2019-05-29T06:40:36.086Z,1004.84
2019-05-29T06:41:35.686Z,1004.82
2019-05-29T06:42:35.729Z,1004.81
2019-05-29T06:43:35.761Z,1004.80
2019-05-29T06:44:36.595Z,1004.81
2019-05-29T06:45:35.777Z,1004.84
2019-05-29T06:46:36.203Z,1004.83
2019-05-29T06:47:36.577Z,1004.80
2019-05-29T06:48:46.193Z,1004.85
2019-05-29T06:49:37.992Z,1004.85
2019-05-29T06:50:37.262Z,1004.83
2019-05-29T06:51:37.091Z,1004.87
2019-05-29T06:52:37.398Z,1004.90
2019-05-29T06:53:37.741Z,1004.90
2019-05-29T06:54:37.882Z,1004.85
2019-05-29T06:55:39.743Z,1004.91
2019-05-29T06:56:37.728Z,1004.90
2019-05-29T06:57:38.113Z,1004.80
2019-05-29T06:58:38.068Z,1004.89
2019-05-29T06:59:38.229Z,1004.87
2019-05-29T07:00:39.340Z,1004.85
2019-05-29T07:01:39.284Z,1004.88
2019-05-29T07:02:38.533Z,1004.88
2019-05-29T07:03:39.597Z,1004.93
2019-05-29T07:04:40.375Z,1004.86
2019-05-29T07:05:39.794Z,1004.93
2019-05-29T07:06:38.911Z,1004.90
2019-05-29T07:07:40.328Z,1004.92
2019-05-29T07:08:44.424Z,1004.86
2019-05-29T07:09:41.442Z,1004.85
2019-05-29T07:10:40.285Z,1004.87
2019-05-29T07:11:39.884Z,1004.85
2019-05-29T07:12:40.446Z,1004.88
2019-05-29T07:13:43.953Z,1004.83
2019-05-29T07:14:44.463Z,1004.80
2019-05-29T07:15:42.902Z,1004.84
2019-05-29T07:16:49.845Z,1004.89
2019-05-29T07:17:42.442Z,1004.90
2019-05-29T07:19:17.275Z,1004.90
2019-05-29T07:19:53.908Z,1004.88
2019-05-29T07:20:43.484Z,1004.93
2019-05-29T07:21:42.794Z,1004.91
2019-05-29T07:22:43.014Z,1004.91
2019-05-29T07:23:46.133Z,1004.90
2019-05-29T07:24:43.504Z,1004.89
2019-05-29T07:25:43.441Z,1004.89
2019-05-29T07:26:43.492Z,1004.94
2019-05-29T07:27:42.927Z,1004.90
2019-05-29T07:29:05.641Z,1004.92
2019-05-29T07:29:45.295Z,1004.90
2019-05-29T07:30:49.624Z,1004.94
2019-05-29T07:31:45.068Z,1004.88
2019-05-29T07:32:51.392Z,1004.95
2019-05-29T07:33:47.303Z,1004.89
2019-05-29T07:34:59.430Z,1004.90
2019-05-29T07:35:46.046Z,1004.89
2019-05-29T07:36:44.212Z,1004.97
2019-05-29T07:37:45.822Z,1004.92
2019-05-29T07:38:54.925Z,1004.89
2019-05-29T07:39:47.707Z,1004.92
2019-05-29T07:40:47.502Z,1004.91
2019-05-29T07:41:46.066Z,1004.93
2019-05-29T07:42:50.543Z,1004.92
2019-05-29T07:43:48.080Z,1004.92
2019-05-29T07:44:46.307Z,1004.93
2019-05-29T07:45:46.115Z,1004.92
2019-05-29T07:46:47.171Z,1004.93
2019-05-29T07:47:46.758Z,1004.96
2019-05-29T07:48:49.767Z,1004.92
2019-05-29T07:49:49.052Z,1004.89
2019-05-29T07:50:48.418Z,1004.80
2019-05-29T07:51:48.648Z,1004.87
2019-05-29T07:52:47.456Z,1004.86
2019-05-29T07:53:48.758Z,1004.82
2019-05-29T07:54:48.077Z,1004.84
2019-05-29T07:55:49.046Z,1004.78
2019-05-29T07:56:49.330Z,1004.84
2019-05-29T07:57:49.003Z,1004.87
2019-05-29T07:59:01.766Z,1004.87
2019-05-29T07:59:51.334Z,1004.83
2019-05-29T08:01:09.974Z,1004.84
2019-05-29T08:01:50.699Z,1004.83
2019-05-29T08:02:49.508Z,1004.80
2019-05-29T08:03:49.782Z,1004.73
2019-05-29T08:04:50.147Z,1004.78
2019-05-29T08:05:52.760Z,1004.74
2019-05-29T08:06:54.310Z,1004.81
2019-05-29T08:07:50.661Z,1004.79
2019-05-29T08:08:49.803Z,1004.84
2019-05-29T08:09:50.019Z,1004.80
2019-05-29T08:10:50.185Z,1004.79
2019-05-29T08:11:50.363Z,1004.84
2019-05-29T08:12:55.201Z,1004.79
2019-05-29T08:13:52.711Z,1004.87
2019-05-29T08:14:51.369Z,1004.82
2019-05-29T08:16:02.051Z,1004.75
2019-05-29T08:16:53.198Z,1004.91
2019-05-29T08:17:51.330Z,1004.76
2019-05-29T08:18:52.932Z,1004.74
2019-05-29T08:20:03.162Z,1004.78
2019-05-29T08:20:53.777Z,1004.75
2019-05-29T08:21:52.843Z,1004.80
2019-05-29T08:22:52.096Z,1004.85
2019-05-29T08:23:52.273Z,1004.84
2019-05-29T08:24:52.456Z,1004.81
2019-05-29T08:25:52.642Z,1004.87
2019-05-29T08:26:52.824Z,1004.83
2019-05-29T08:27:52.985Z,1004.82
2019-05-29T08:28:53.186Z,1004.86
2019-05-29T08:29:53.347Z,1004.86
2019-05-29T08:30:56.577Z,1004.94
2019-05-29T08:31:54.709Z,1004.88
2019-05-29T08:32:53.852Z,1004.87
2019-05-29T08:33:54.017Z,1004.90
2019-05-29T08:34:54.191Z,1004.83
2019-05-29T08:35:59.945Z,1004.82
2019-05-29T08:37:06.230Z,1004.86
2019-05-29T08:37:56.733Z,1004.93
2019-05-29T08:38:54.983Z,1004.89
2019-05-29T08:39:57.445Z,1004.82
2019-05-29T08:40:55.315Z,1004.89
2019-05-29T08:42:21.039Z,1004.89
2019-05-29T08:42:58.348Z,1004.87
2019-05-29T08:43:55.855Z,1004.91
2019-05-29T08:44:56.401Z,1004.86
2019-05-29T08:45:56.182Z,1004.85
2019-05-29T08:47:09.182Z,1004.89
2019-05-29T08:47:57.597Z,1004.88
2019-05-29T08:48:56.787Z,1004.91
2019-05-29T08:50:16.810Z,1004.92
2019-05-29T08:50:59.105Z,1004.94
2019-05-29T08:52:11.091Z,1004.93
2019-05-29T08:53:02.412Z,1004.93
2019-05-29T08:53:57.692Z,1004.96
2019-05-29T08:54:57.880Z,1004.96
2019-05-29T08:55:58.096Z,1004.89
2019-05-29T08:56:58.216Z,1004.90
2019-05-29T08:57:58.388Z,1004.90
2019-05-29T08:58:58.623Z,1004.91
2019-05-29T08:59:58.851Z,1004.91
2019-05-29T09:00:59.855Z,1004.92
2019-05-29T09:01:59.143Z,1004.92
2019-05-29T09:02:59.351Z,1004.90
2019-05-29T09:03:59.543Z,1004.94
2019-05-29T09:04:59.762Z,1004.99
2019-05-29T09:06:08.602Z,1004.93
2019-05-29T09:07:02.222Z,1004.93
2019-05-29T09:08:00.850Z,1004.91
2019-05-29T09:09:00.510Z,1004.97
2019-05-29T09:10:00.715Z,1004.93
2019-05-29T09:11:00.889Z,1004.88
2019-05-29T09:12:01.034Z,1004.91
2019-05-29T09:13:04.862Z,1004.88
2019-05-29T09:14:02.419Z,1004.86
2019-05-29T09:15:01.706Z,1004.83
2019-05-29T09:16:01.875Z,1004.87
2019-05-29T09:17:02.083Z,1004.85
2019-05-29T09:18:02.278Z,1004.76
2019-05-29T09:19:02.449Z,1004.78
2019-05-29T09:20:02.593Z,1004.83
2019-05-29T09:21:03.972Z,1004.83
2019-05-29T09:22:03.997Z,1004.85
2019-05-29T09:23:03.858Z,1004.84
2019-05-29T09:24:03.244Z,1004.86
2019-05-29T09:25:03.455Z,1004.81
2019-05-29T09:26:14.269Z,1004.77
2019-05-29T09:27:05.847Z,1004.77
2019-05-29T09:28:04.858Z,1004.78
2019-05-29T09:29:04.115Z,1004.82
2019-05-29T09:30:04.296Z,1004.79
2019-05-29T09:31:04.452Z,1004.78
2019-05-29T09:32:04.645Z,1004.77
2019-05-29T09:33:04.825Z,1004.81
2019-05-29T09:34:04.985Z,1004.83
2019-05-29T09:35:05.161Z,1004.80
2019-05-29T09:36:05.351Z,1004.84
2019-05-29T09:37:05.881Z,1004.87
2019-05-29T09:38:06.356Z,1004.81
2019-05-29T09:39:05.899Z,1004.78
2019-05-29T09:40:06.065Z,1004.77
2019-05-29T09:41:06.261Z,1004.82
2019-05-29T09:42:06.880Z,1004.87
2019-05-29T09:43:07.446Z,1004.82
2019-05-29T09:44:06.999Z,1004.85
2019-05-29T09:45:07.073Z,1004.89
2019-05-29T09:46:07.262Z,1004.79
2019-05-29T09:47:07.478Z,1004.83
2019-05-29T09:48:07.713Z,1004.84
2019-05-29T09:49:08.387Z,1004.87
2019-05-29T09:50:08.893Z,1004.82
2019-05-29T09:51:20.550Z,1004.81
2019-05-29T09:52:10.284Z,1004.80
2019-05-29T09:53:08.439Z,1004.82
2019-05-29T09:54:08.627Z,1004.84
2019-05-29T09:55:09.367Z,1004.79
2019-05-29T09:56:09.012Z,1004.84
2019-05-29T09:57:09.222Z,1004.77
2019-05-29T09:58:09.410Z,1004.82
2019-05-29T09:59:10.410Z,1004.78
2019-05-29T10:00:10.369Z,1004.81
2019-05-29T10:01:22.857Z,1004.79
2019-05-29T10:02:12.127Z,1004.79
2019-05-29T10:03:10.297Z,1004.76
2019-05-29T10:04:10.476Z,1004.78
2019-05-29T10:05:10.628Z,1004.75
2019-05-29T10:06:10.799Z,1004.78
2019-05-29T10:07:10.974Z,1004.84
2019-05-29T10:08:11.206Z,1004.76
2019-05-29T10:09:11.333Z,1004.78
2019-05-29T10:10:11.526Z,1004.76
2019-05-29T10:11:11.717Z,1004.81
2019-05-29T10:12:11.903Z,1004.75
2019-05-29T10:13:12.119Z,1004.79
2019-05-29T10:14:12.283Z,1004.81
2019-05-29T10:15:12.475Z,1004.79
2019-05-29T10:16:12.649Z,1004.80
2019-05-29T10:17:13.504Z,1004.74
2019-05-29T10:18:30.413Z,1004.85
2019-05-29T10:19:15.216Z,1004.83
2019-05-29T10:20:14.383Z,1004.79
2019-05-29T10:21:13.519Z,1004.83
2019-05-29T10:22:13.900Z,1004.83
2019-05-29T10:23:13.866Z,1004.80
2019-05-29T10:24:13.994Z,1004.79
2019-05-29T10:25:14.136Z,1004.83
2019-05-29T10:26:14.269Z,1004.85
2019-05-29T10:27:14.401Z,1004.87
2019-05-29T10:28:14.886Z,1004.83
2019-05-29T10:29:14.770Z,1004.79
2019-05-29T10:30:14.901Z,1004.81
2019-05-29T10:31:15.061Z,1004.76
2019-05-29T10:32:15.207Z,1004.80
2019-05-29T10:33:15.362Z,1004.79
2019-05-29T10:34:15.574Z,1004.81
2019-05-29T10:35:15.776Z,1004.80
2019-05-29T10:36:15.904Z,1004.71
2019-05-29T10:37:18.404Z,1004.70
2019-05-29T10:38:17.875Z,1004.74
2019-05-29T10:39:16.369Z,1004.77
2019-05-29T10:40:16.507Z,1004.70
2019-05-29T10:41:16.681Z,1004.74
2019-05-29T10:42:20.460Z,1004.72
2019-05-29T10:43:33.250Z,1004.70
2019-05-29T10:44:19.141Z,1004.69
2019-05-29T10:45:17.233Z,1004.73
2019-05-29T10:46:17.920Z,1004.75
2019-05-29T10:47:17.603Z,1004.71
2019-05-29T10:48:17.780Z,1004.67
2019-05-29T10:49:17.955Z,1004.69
2019-05-29T10:50:18.098Z,1004.59
2019-05-29T10:51:18.278Z,1004.60
2019-05-29T10:52:18.391Z,1004.67
2019-05-29T10:53:18.625Z,1004.66
2019-05-29T10:54:18.797Z,1004.61
2019-05-29T10:55:18.952Z,1004.58
2019-05-29T10:56:21.204Z,1004.66
2019-05-29T10:57:20.235Z,1004.59
2019-05-29T10:58:19.452Z,1004.63
2019-05-29T10:59:19.660Z,1004.62
2019-05-29T11:00:20.833Z,1004.65
2019-05-29T11:01:20.897Z,1004.64
2019-05-29T11:02:20.159Z,1004.59
2019-05-29T11:03:20.332Z,1004.63
2019-05-29T11:04:20.475Z,1004.54
2019-05-29T11:05:20.660Z,1004.59
2019-05-29T11:06:21.797Z,1004.56
2019-05-29T11:07:20.937Z,1004.55
2019-05-29T11:08:21.106Z,1004.55
2019-05-29T11:09:21.271Z,1004.53
2019-05-29T11:10:21.432Z,1004.48
2019-05-29T11:11:21.593Z,1004.45
2019-05-29T11:12:21.792Z,1004.51
2019-05-29T11:13:21.970Z,1004.48
2019-05-29T11:14:22.142Z,1004.42
2019-05-29T11:15:22.305Z,1004.41
2019-05-29T11:16:22.462Z,1004.40
2019-05-29T11:17:22.644Z,1004.44
2019-05-29T11:18:22.799Z,1004.35
2019-05-29T11:19:26.097Z,1004.36
2019-05-29T11:20:24.195Z,1004.35
2019-05-29T11:21:23.368Z,1004.33
2019-05-29T11:22:26.601Z,1004.41
2019-05-29T11:23:24.668Z,1004.37
2019-05-29T11:24:23.792Z,1004.33
2019-05-29T11:25:27.575Z,1004.31
2019-05-29T11:26:25.136Z,1004.27
2019-05-29T11:27:26.134Z,1004.32
2019-05-29T11:28:25.902Z,1004.33
2019-05-29T11:29:24.666Z,1004.28
2019-05-29T11:30:25.398Z,1004.26
2019-05-29T11:31:25.065Z,1004.23
2019-05-29T11:32:25.289Z,1004.21
2019-05-29T11:33:25.458Z,1004.25
2019-05-29T11:34:25.634Z,1004.15
2019-05-29T11:35:25.790Z,1004.21
2019-05-29T11:36:26.903Z,1004.22
2019-05-29T11:37:26.421Z,1004.14
2019-05-29T11:38:26.313Z,1004.20
2019-05-29T11:39:26.439Z,1004.28
2019-05-29T11:40:26.578Z,1004.31
2019-05-29T11:41:26.960Z,1004.26
2019-05-29T11:42:28.323Z,1004.23
2019-05-29T11:43:28.908Z,1004.24
2019-05-29T11:44:27.295Z,1004.25
2019-05-29T11:45:27.457Z,1004.21
2019-05-29T11:46:27.613Z,1004.28
2019-05-29T11:47:27.827Z,1004.26
2019-05-29T11:48:28.911Z,1004.10
2019-05-29T11:49:28.183Z,1004.15
2019-05-29T11:50:28.360Z,1004.17
2019-05-29T11:51:29.295Z,1004.17
2019-05-29T11:52:41.702Z,1004.09
2019-05-29T11:53:30.951Z,1004.09
2019-05-29T11:54:29.101Z,1004.09
2019-05-29T11:55:29.248Z,1004.09
2019-05-29T11:56:29.410Z,1004.08
2019-05-29T11:57:29.587Z,1004.15
2019-05-29T11:58:31.597Z,1004.09
2019-05-29T11:59:30.958Z,1004.10
2019-05-29T12:00:30.928Z,1004.08
2019-05-29T12:01:48.632Z,1004.03
2019-05-29T12:02:31.462Z,1004.12
2019-05-29T12:03:30.614Z,1004.10
2019-05-29T12:04:30.785Z,1004.02
2019-05-29T12:05:30.961Z,1004.12
2019-05-29T12:06:31.178Z,1004.07
2019-05-29T12:07:31.354Z,1004.05